North Salt Lake
Center St & Main St, North Salt Lake
Last Weather Update:03/29/2012 11:00:00 AM
Date
ETo
ETc
Rain
Irrigation
Req
Temp
Max
Temp
Min
Temp
Avg
Avg RH
Avg Wind
Avg Solar
inches
inches
incehs
inches
F
F
F
%
%
watts/m2
02/01/2012 0.04" 0.00" 0.00" 0.00" 46.1° 26.9° 36.0° 87.9% 3.5 MPH 50.9w/m2
02/02/2012 0.03" 0.00" 0.01" -0.01" 40.5° 31.5° 34.7° 84.1% 1.9 MPH 69.1w/m2
02/03/2012 0.07" 0.00" 0.00" 0.00" 43.0° 28.4° 35.8° 67.4% 5.6 MPH 139.1w/m2
02/04/2012 0.05" 0.00" 0.00" 0.00" 42.7° 23.3° 32.0° 77.1% 3.3 MPH 140.0w/m2
02/05/2012 0.05" 0.00" 0.00" 0.00" 41.7° 21.7° 30.9° 77.3% 2.9 MPH 142.7w/m2
02/06/2012 0.05" 0.00" 0.00" 0.00" 40.6° 21.8° 30.5° 74.6% 2.7 MPH 139.8w/m2
02/07/2012 0.06" 0.00" 0.00" 0.00" 46.8° 21.1° 32.6° 63.8% 2.8 MPH 142.6w/m2
02/08/2012 0.03" 0.00" 0.01" -0.01" 44.3° 32.5° 36.4° 92.6% 2.7 MPH 73.1w/m2
02/09/2012 0.03" 0.00" 0.01" -0.01" 43.2° 31.8° 38.4° 83.0% 1.6 MPH 48.3w/m2
02/10/2012 0.05" 0.00" 0.00" 0.00" 55.0° 36.1° 43.5° 78.2% 2.4 MPH 103.1w/m2
02/11/2012 0.05" 0.00" 0.00" 0.00" 55.6° 33.1° 42.1° 69.5% 3.6 MPH 68.0w/m2
02/12/2012 0.01" 0.00" 0.43" -0.34" 43.7° 33.1° 36.7° 94.2% 1.6 MPH 12.5w/m2
02/13/2012 0.06" 0.00" 0.02" -0.02" 48.3° 31.8° 39.3° 69.5% 2.3 MPH 119.7w/m2
02/14/2012 0.05" 0.00" 0.02" -0.02" 44.3° 32.7° 37.7° 60.6% 2.6 MPH 126.9w/m2
02/15/2012 0.04" 0.00" 0.06" -0.05" 41.2° 32.4° 36.0° 87.2% 2.7 MPH 103.6w/m2
02/16/2012 0.05" 0.00" 0.00" 0.00" 41.7° 26.8° 33.1° 71.4% 2.7 MPH 136.5w/m2
02/17/2012 0.05" 0.00" 0.00" 0.00" 44.0° 24.6° 33.3° 66.8% 2.6 MPH 122.3w/m2
02/18/2012 0.07" 0.00" 0.00" 0.00" 47.1° 24.8° 36.3° 93.6% 4.1 MPH 130.7w/m2
02/19/2012 0.03" 0.00" 0.22" -0.18" 33.2° 26.8° 29.5° 84.5% 2.1 MPH 98.9w/m2
02/20/2012 0.06" 0.00" 0.00" 0.00" 37.7° 21.7° 31.4° 50.1% 4.6 MPH 151.1w/m2
02/21/2012 0.05" 0.00" 0.02" -0.02" 45.6° 34.6° 40.0° 72.7% 3.8 MPH 71.9w/m2
02/22/2012 0.08" 0.00" 0.01" -0.01" 57.1° 42.4° 50.2° 62.1% 4.9 MPH 99.9w/m2
02/23/2012 0.07" 0.00" 0.00" 0.00" 45.4° 28.5° 34.4° 50.5% 6.3 MPH 130.1w/m2
02/24/2012 0.08" 0.00" 0.00" 0.00" 46.7° 24.5° 34.8° 49.2% 3.3 MPH 184.7w/m2
02/25/2012 0.08" 0.00" 0.00" 0.00" 49.0° 28.4° 38.2° 56.5% 9.2 MPH 106.7w/m2
02/26/2012 0.07" 0.00" 0.00" 0.00" 39.2° 22.5° 30.7° 35.3% 3.7 MPH 176.3w/m2
02/27/2012 0.05" 0.00" 0.01" -0.01" 45.3° 28.2° 35.8° 92.9% 3.4 MPH 91.8w/m2
02/28/2012 0.03" 0.00" 0.07" -0.06" 39.1° 30.2° 34.1° 57.3% 3.4 MPH 89.2w/m2
02/29/2012 0.07" 0.00" 0.00" 0.00" 47.1° 25.3° 36.7° 97.6% 8.4 MPH 76.4w/m2
Totals: 1.49" 0.00" 0.89" -0.71" 57.1° 21.1° 35.9° 72.7% 3.6 MPH 108.5w/m2